createdAt,value
2023-04-17T00:00:36.988Z,12.90
2023-04-17T00:10:38.923Z,12.80
2023-04-17T00:20:42.262Z,12.80
2023-04-17T00:30:44.344Z,12.70
2023-04-17T00:40:47.902Z,12.50
2023-04-17T00:50:50.715Z,12.40
2023-04-17T01:00:54.063Z,12.50
2023-04-17T01:10:56.043Z,12.50
2023-04-17T01:20:59.579Z,12.40
2023-04-17T01:31:03.335Z,12.30
2023-04-17T01:41:05.615Z,12.30
2023-04-17T01:51:08.954Z,12.30
2023-04-17T02:01:10.920Z,12.20
2023-04-17T02:11:14.260Z,12.20
2023-04-17T02:21:16.300Z,12.20
2023-04-17T02:31:19.642Z,12.00
2023-04-17T02:41:21.595Z,12.10
2023-04-17T02:51:24.994Z,11.80
2023-04-17T03:01:27.023Z,11.70
2023-04-17T03:11:30.496Z,11.50
2023-04-17T03:21:32.556Z,11.50
2023-04-17T03:31:35.938Z,11.50
2023-04-17T03:41:37.907Z,11.40
2023-04-17T03:51:41.283Z,11.50
2023-04-17T04:01:45.338Z,11.30
2023-04-17T04:11:49.970Z,11.20
2023-04-17T04:21:52.101Z,11.20
2023-04-17T04:31:55.495Z,11.20
2023-04-17T04:41:58.506Z,11.10
2023-04-17T04:52:01.812Z,11.00
2023-04-17T05:02:04.000Z,11.00
2023-04-17T05:12:07.954Z,10.90
2023-04-17T05:22:09.925Z,11.00
2023-04-17T05:32:13.270Z,10.90
2023-04-17T05:42:15.196Z,10.80
2023-04-17T05:52:18.652Z,10.80
2023-04-17T06:02:20.667Z,10.80
2023-04-17T06:12:24.549Z,10.90
2023-04-17T06:22:26.466Z,11.10
2023-04-17T06:32:30.016Z,11.40
2023-04-17T06:42:31.951Z,11.40
2023-04-17T06:52:35.299Z,11.20
2023-04-17T07:02:37.326Z,11.00
2023-04-17T07:12:40.765Z,11.20
2023-04-17T07:22:42.791Z,11.70
2023-04-17T07:32:46.581Z,12.10
2023-04-17T07:42:48.589Z,12.00
2023-04-17T07:52:51.943Z,12.60
2023-04-17T08:02:54.071Z,12.70
2023-04-17T08:12:57.754Z,12.90
2023-04-17T08:22:59.825Z,12.90
2023-04-17T08:33:03.351Z,13.20
2023-04-17T08:43:05.535Z,13.60
2023-04-17T08:53:09.874Z,15.20
2023-04-17T09:03:13.196Z,17.60
2023-04-17T09:13:18.531Z,19.00
2023-04-17T09:23:20.975Z,19.90
2023-04-17T09:33:24.317Z,20.30
2023-04-17T09:43:40.370Z,20.80
2023-04-17T09:53:43.788Z,21.60
2023-04-17T10:03:46.034Z,20.90
2023-04-17T10:13:55.502Z,21.90
2023-04-17T10:23:57.477Z,21.60
2023-04-17T10:34:00.840Z,22.10
2023-04-17T10:44:02.778Z,22.10
2023-04-17T10:54:06.778Z,21.40
2023-04-17T11:04:09.311Z,20.90
2023-04-17T11:14:14.817Z,20.40
2023-04-17T11:24:23.309Z,20.60
2023-04-17T11:34:27.334Z,19.80
2023-04-17T11:44:29.937Z,19.00
2023-04-17T11:54:36.327Z,19.00
2023-04-17T12:04:39.715Z,18.60
2023-04-17T12:14:44.652Z,17.80
2023-04-17T12:24:46.593Z,17.50
2023-04-17T12:34:49.924Z,17.30
2023-04-17T12:44:51.961Z,17.30
2023-04-17T12:54:55.323Z,16.80
2023-04-17T13:04:57.318Z,16.60
2023-04-17T13:15:00.664Z,16.90
2023-04-17T13:25:03.083Z,17.20
2023-04-17T13:35:07.804Z,16.30
2023-04-17T13:45:10.534Z,16.80
2023-04-17T13:55:13.882Z,17.10
2023-04-17T14:05:16.355Z,16.80
2023-04-17T14:15:19.813Z,16.40
2023-04-17T14:25:21.838Z,17.00
2023-04-17T14:35:26.868Z,16.80
2023-04-17T14:45:28.996Z,17.30
2023-04-17T14:55:32.321Z,17.60
2023-04-17T15:05:34.338Z,17.60
2023-04-17T15:15:37.939Z,17.70
2023-04-17T15:25:40.169Z,17.70
2023-04-17T15:35:43.753Z,17.40
2023-04-17T15:45:47.629Z,17.70
2023-04-17T15:55:52.663Z,17.20
2023-04-17T16:05:54.674Z,16.70
2023-04-17T16:16:00.625Z,16.60
2023-04-17T16:26:02.734Z,16.00
2023-04-17T16:36:06.491Z,15.20
2023-04-17T16:46:21.032Z,15.10
2023-04-17T16:56:28.092Z,14.70
2023-04-17T17:06:30.022Z,14.50
2023-04-17T17:16:33.379Z,14.20
2023-04-17T17:26:35.371Z,13.50
2023-04-17T17:36:38.679Z,13.20
2023-04-17T17:46:40.638Z,12.70
2023-04-17T17:56:44.012Z,12.50
2023-04-17T18:06:46.960Z,12.00
2023-04-17T20:58:14.589Z,10.20
2023-04-17T21:08:16.548Z,10.30
2023-04-17T21:18:19.887Z,10.30
2023-04-17T21:28:21.854Z,10.10
2023-04-17T21:38:25.159Z,10.20
2023-04-17T21:48:27.174Z,10.10
2023-04-17T21:58:30.465Z,10.00
2023-04-17T22:08:40.983Z,10.00
2023-04-17T22:18:44.320Z,9.90
2023-04-17T22:28:46.260Z,9.70
2023-04-17T22:38:49.582Z,10.00
2023-04-17T22:48:51.563Z,9.70
2023-04-17T22:58:54.873Z,9.60
2023-04-17T23:08:56.776Z,9.80
2023-04-17T23:19:00.084Z,9.70
2023-04-17T23:29:05.044Z,9.70
2023-04-17T23:39:11.172Z,9.70
2023-04-17T23:49:13.062Z,9.40
2023-04-17T23:59:16.340Z,9.40
